createdAt,value
2019-05-02T00:04:33.019Z,21.42
2019-05-02T00:07:28.678Z,21.30
2019-05-02T00:10:19.919Z,20.68
2019-05-02T00:16:01.781Z,22.10
2019-05-02T00:18:49.772Z,24.95
2019-05-02T00:21:32.803Z,23.47
2019-05-02T00:24:18.352Z,21.95
2019-05-02T00:27:06.443Z,24.37
2019-05-02T00:29:58.642Z,26.05
2019-05-02T00:32:44.548Z,26.80
2019-05-02T00:35:32.557Z,26.42
2019-05-02T00:38:20.551Z,25.30
2019-05-02T00:41:08.544Z,24.57
2019-05-02T00:43:56.554Z,26.73
2019-05-02T00:46:44.609Z,30.10
2019-05-02T00:49:35.434Z,25.10
2019-05-02T00:52:22.403Z,26.55
2019-05-02T00:55:10.360Z,24.32
2019-05-02T00:57:58.333Z,23.80
2019-05-02T01:06:59.798Z,28.67
2019-05-02T01:09:48.071Z,27.90
2019-05-02T01:12:39.976Z,29.02
2019-05-02T01:15:25.808Z,27.40
2019-05-02T01:17:54.512Z,25.30
2019-05-02T01:20:27.420Z,27.75
2019-05-02T01:22:54.243Z,28.55
2019-05-02T01:25:42.388Z,29.85
2019-05-02T01:28:54.096Z,28.35
2019-05-02T01:31:58.267Z,28.60
2019-05-02T01:35:05.305Z,32.33
2019-05-02T01:38:12.344Z,25.40
2019-05-02T01:41:00.427Z,30.12
2019-05-02T01:43:48.408Z,31.97
2019-05-02T01:46:36.866Z,35.08
2019-05-02T01:49:24.876Z,31.27
2019-05-02T01:52:12.950Z,31.95
2019-05-02T01:55:00.948Z,32.28
2019-05-02T01:57:48.957Z,31.00
2019-05-02T02:00:40.937Z,33.58
2019-05-02T02:03:27.018Z,30.10
2019-05-02T02:06:15.127Z,33.75
2019-05-02T02:09:07.775Z,30.37
2019-05-02T02:11:52.979Z,31.52
2019-05-02T02:14:40.982Z,31.10
2019-05-02T02:17:29.325Z,32.15
2019-05-02T02:20:14.077Z,33.42
2019-05-02T02:26:00.950Z,32.25
2019-05-02T02:28:48.941Z,30.50
2019-05-02T02:31:39.523Z,34.13
2019-05-02T02:34:32.347Z,32.65
2019-05-02T02:37:16.511Z,34.08
2019-05-02T02:40:04.744Z,34.13
2019-05-02T02:42:52.782Z,36.48
2019-05-02T02:48:55.234Z,34.80
2019-05-02T02:51:43.188Z,35.68
2019-05-02T02:54:36.514Z,31.97
2019-05-02T02:57:26.271Z,34.33
2019-05-02T03:00:11.232Z,36.28
2019-05-02T03:03:00.374Z,36.50
2019-05-02T03:05:48.465Z,38.53
2019-05-02T03:08:44.578Z,37.35
2019-05-02T03:17:31.587Z,39.27
2019-05-02T03:20:12.564Z,35.17
2019-05-02T03:22:51.106Z,39.73
2019-05-02T03:25:50.687Z,39.98
2019-05-02T03:28:28.866Z,36.90
2019-05-02T03:31:29.816Z,43.33
2019-05-02T03:34:06.596Z,39.92
2019-05-02T03:36:54.666Z,40.40
2019-05-02T03:39:49.238Z,45.00
2019-05-02T03:42:43.754Z,39.30
2019-05-02T03:45:22.226Z,38.70
2019-05-02T03:48:10.226Z,37.93
2019-05-02T03:50:58.248Z,40.23
2019-05-02T03:53:46.280Z,41.18
2019-05-02T03:56:34.274Z,38.48
2019-05-02T03:59:22.250Z,43.55
2019-05-02T04:02:14.049Z,39.40
2019-05-02T04:05:01.132Z,44.38
2019-05-02T04:07:49.747Z,58.68
2019-05-02T04:10:59.386Z,142.62
2019-05-02T04:13:46.744Z,37.73
2019-05-02T04:16:34.771Z,41.83
2019-05-02T04:19:28.750Z,40.85
2019-05-02T04:22:08.953Z,40.03
2019-05-02T04:24:56.422Z,45.60
2019-05-02T04:27:42.995Z,42.00
2019-05-02T04:30:30.969Z,41.85
2019-05-02T04:33:19.005Z,44.45
2019-05-02T04:36:14.244Z,43.33
2019-05-02T04:38:59.466Z,43.68
2019-05-02T04:41:48.550Z,67.82
2019-05-02T04:44:46.374Z,90.28
2019-05-02T04:47:28.836Z,37.80
2019-05-02T04:50:18.508Z,42.73
2019-05-02T04:53:08.382Z,42.23
2019-05-02T04:59:17.856Z,39.30
2019-05-02T05:02:01.285Z,39.50
2019-05-02T05:04:49.488Z,39.10
2019-05-02T05:07:43.819Z,36.17
2019-05-02T05:10:28.250Z,38.28
2019-05-02T05:13:21.605Z,84.03
2019-05-02T05:16:08.150Z,46.00
2019-05-02T05:18:57.857Z,40.60
2019-05-02T05:21:38.739Z,40.65
2019-05-02T05:27:21.213Z,39.38
2019-05-02T05:30:11.356Z,38.10
2019-05-02T05:32:55.694Z,46.48
2019-05-02T05:35:48.746Z,42.98
2019-05-02T05:38:36.023Z,50.75
2019-05-02T05:41:23.555Z,36.68
2019-05-02T05:44:11.822Z,40.90
2019-05-02T05:46:42.474Z,43.92
2019-05-02T05:49:30.507Z,44.65
2019-05-02T05:52:02.233Z,38.83
2019-05-02T05:54:49.070Z,45.58
2019-05-02T06:00:33.360Z,44.98
2019-05-02T06:11:50.670Z,44.15
2019-05-02T06:16:36.456Z,48.35
2019-05-02T06:19:24.592Z,46.73
2019-05-02T06:22:05.128Z,52.48
2019-05-02T06:24:46.248Z,46.20
2019-05-02T06:27:33.839Z,47.17
2019-05-02T06:30:40.890Z,45.28
2019-05-02T06:33:30.457Z,47.10
2019-05-02T06:36:18.792Z,44.13
2019-05-02T06:39:06.842Z,54.70
2019-05-02T06:41:57.547Z,43.85
2019-05-02T06:44:44.523Z,46.48
2019-05-02T06:47:35.889Z,146.15
2019-05-02T06:50:24.768Z,42.45
2019-05-02T06:53:12.032Z,42.00
2019-05-02T06:56:00.088Z,42.43
2019-05-02T06:58:48.170Z,42.90
2019-05-02T07:01:36.442Z,45.78
2019-05-02T07:04:25.031Z,42.98
2019-05-02T07:07:14.269Z,52.53
2019-05-02T07:10:02.506Z,47.40
2019-05-02T07:12:51.197Z,45.85
2019-05-02T07:15:59.053Z,44.25
2019-05-02T07:22:04.065Z,45.95
2019-05-02T07:24:39.894Z,42.48
2019-05-02T07:27:33.114Z,42.83
2019-05-02T07:33:26.926Z,48.85
2019-05-02T07:36:15.024Z,43.85
2019-05-02T07:42:00.630Z,48.13
2019-05-02T07:44:47.672Z,51.63
2019-05-02T07:47:40.315Z,47.98
2019-05-02T07:50:25.586Z,47.67
2019-05-02T07:53:14.359Z,79.87
2019-05-02T07:56:03.322Z,51.45
2019-05-02T07:58:51.325Z,47.62
2019-05-02T08:01:39.294Z,50.17
2019-05-02T08:04:27.307Z,51.18
2019-05-02T08:07:16.326Z,54.48
2019-05-02T08:10:05.133Z,50.70
2019-05-02T08:15:50.777Z,52.30
2019-05-02T08:18:36.716Z,47.93
2019-05-02T08:21:27.262Z,52.98
2019-05-02T08:24:14.433Z,47.40
2019-05-02T08:27:23.134Z,48.98
2019-05-02T08:33:29.480Z,47.93
2019-05-02T08:39:08.470Z,47.62
2019-05-02T08:41:57.896Z,42.30
2019-05-02T08:44:51.226Z,38.85
2019-05-02T08:47:36.142Z,45.80
2019-05-02T08:50:27.253Z,40.90
2019-05-02T08:53:19.847Z,41.58
2019-05-02T08:56:04.523Z,46.37
2019-05-02T08:58:52.513Z,43.20
2019-05-02T09:01:40.518Z,44.53
2019-05-02T09:04:29.242Z,45.10
2019-05-02T09:07:18.277Z,43.55
2019-05-02T09:10:08.243Z,48.28
2019-05-02T09:12:56.275Z,48.65
2019-05-02T09:15:49.644Z,45.17
2019-05-02T09:18:38.237Z,39.40
2019-05-02T09:21:26.745Z,44.88
2019-05-02T09:24:08.466Z,47.95
2019-05-02T09:26:46.466Z,43.73
2019-05-02T09:29:37.296Z,46.65
2019-05-02T09:32:26.278Z,45.43
2019-05-02T09:35:14.087Z,42.75
2019-05-02T09:38:02.087Z,42.65
2019-05-02T09:40:54.548Z,44.03
2019-05-02T09:43:39.863Z,46.75
2019-05-02T09:46:28.237Z,46.42
2019-05-02T09:49:16.645Z,41.25
2019-05-02T09:52:06.077Z,43.38
2019-05-02T09:55:16.757Z,42.60
2019-05-02T09:58:05.231Z,46.20
2019-05-02T10:01:12.209Z,46.05
2019-05-02T10:04:03.558Z,50.80
2019-05-02T10:06:32.146Z,44.20
2019-05-02T10:09:24.240Z,42.38
2019-05-02T10:12:12.304Z,46.08
2019-05-02T10:14:42.135Z,44.75
2019-05-02T10:23:19.542Z,45.33
2019-05-02T10:25:46.952Z,42.30
2019-05-02T10:28:35.303Z,40.20
2019-05-02T10:31:27.575Z,39.15
2019-05-02T10:34:16.345Z,37.30
2019-05-02T10:37:03.260Z,38.60
2019-05-02T10:39:52.531Z,35.95
2019-05-02T10:42:41.924Z,38.90
2019-05-02T10:54:33.716Z,36.25
2019-05-02T10:57:21.955Z,33.90
2019-05-02T11:03:47.447Z,37.13
2019-05-02T11:06:15.932Z,37.15
2019-05-02T11:09:06.527Z,34.40
2019-05-02T11:11:54.938Z,31.30
2019-05-02T11:15:02.339Z,35.55
2019-05-02T11:17:52.733Z,27.00
2019-05-02T11:20:42.087Z,49.33
2019-05-02T11:23:12.721Z,33.33
2019-05-02T11:25:52.655Z,29.75
2019-05-02T11:28:32.369Z,29.12
2019-05-02T11:31:02.645Z,30.05
2019-05-02T11:33:32.533Z,31.00
2019-05-02T11:36:22.348Z,26.27
2019-05-02T11:39:18.696Z,25.17
2019-05-02T11:42:02.101Z,28.32
2019-05-02T11:44:52.268Z,28.00
2019-05-02T11:47:42.153Z,25.85
2019-05-02T11:50:31.975Z,26.42
2019-05-02T11:53:28.838Z,24.52
2019-05-02T11:56:28.659Z,23.20
2019-05-02T11:59:22.701Z,24.25
2019-05-02T12:02:25.333Z,23.52
2019-05-02T12:05:35.678Z,28.98
2019-05-02T12:08:22.759Z,27.17
2019-05-02T12:11:16.438Z,33.18
2019-05-02T12:14:01.731Z,25.95
2019-05-02T12:16:32.280Z,33.10
2019-05-02T12:19:22.834Z,57.85
2019-05-02T12:22:12.930Z,26.10
2019-05-02T12:24:45.326Z,28.17
2019-05-02T12:27:23.128Z,28.32
2019-05-02T12:30:11.833Z,22.82
2019-05-02T12:33:02.501Z,23.90
2019-05-02T12:35:52.542Z,28.07
2019-05-02T12:38:42.025Z,29.02
2019-05-02T12:41:30.215Z,24.45
2019-05-02T12:44:37.319Z,27.15
2019-05-02T12:47:26.171Z,29.98
2019-05-02T12:50:14.485Z,27.15
2019-05-02T12:53:03.042Z,26.30
2019-05-02T12:55:52.703Z,28.92
2019-05-02T12:58:42.137Z,28.20
2019-05-02T13:01:32.970Z,28.92
2019-05-02T13:04:22.814Z,26.33
2019-05-02T13:07:12.650Z,39.83
2019-05-02T13:10:02.435Z,29.05
2019-05-02T13:12:50.422Z,24.52
2019-05-02T13:15:38.606Z,27.77
2019-05-02T13:18:29.259Z,24.18
2019-05-02T13:27:12.649Z,24.45
2019-05-02T13:29:53.599Z,28.60
2019-05-02T13:32:57.717Z,32.80
2019-05-02T13:35:42.053Z,33.48
2019-05-02T13:38:22.722Z,27.85
2019-05-02T13:41:02.647Z,34.92
2019-05-02T13:47:00.212Z,30.08
2019-05-02T13:49:54.059Z,29.00
2019-05-02T13:52:38.403Z,42.45
2019-05-02T13:55:08.316Z,40.25
2019-05-02T13:57:45.340Z,37.83
2019-05-02T14:13:04.479Z,41.80
2019-05-02T14:16:14.399Z,46.88
2019-05-02T14:19:03.050Z,40.92
2019-05-02T14:21:51.901Z,41.68
2019-05-02T14:24:42.200Z,42.53
2019-05-02T14:27:32.185Z,44.83
2019-05-02T14:36:27.637Z,48.75
2019-05-02T14:39:35.578Z,41.40
2019-05-02T14:42:26.140Z,52.38
2019-05-02T14:45:27.230Z,59.03
2019-05-02T14:48:17.934Z,52.90
2019-05-02T14:50:53.636Z,46.73
2019-05-02T14:53:42.996Z,48.13
2019-05-02T14:56:52.194Z,50.17
2019-05-02T14:59:42.714Z,44.40
2019-05-02T15:02:50.033Z,52.23
2019-05-02T15:05:59.018Z,50.38
2019-05-02T15:08:48.293Z,48.87
2019-05-02T15:14:32.951Z,53.30
2019-05-02T15:17:22.710Z,49.98
2019-05-02T15:20:13.019Z,51.23
2019-05-02T15:23:02.569Z,61.68
2019-05-02T15:25:52.569Z,58.33
2019-05-02T15:28:39.588Z,48.02
2019-05-02T15:35:06.051Z,58.08
2019-05-02T15:37:56.601Z,43.33
2019-05-02T15:40:53.508Z,47.38
2019-05-02T15:43:44.500Z,39.45
2019-05-02T15:56:02.806Z,32.90
2019-05-02T15:58:52.207Z,29.75
2019-05-02T16:05:05.484Z,20.88
2019-05-02T16:08:05.443Z,20.02
2019-05-02T16:10:45.239Z,22.10
2019-05-02T16:14:10.553Z,18.23
2019-05-02T16:17:42.196Z,18.48
2019-05-02T16:20:49.308Z,20.62
2019-05-02T16:23:37.991Z,22.40
2019-05-02T16:26:26.377Z,23.57
2019-05-02T16:29:19.513Z,19.35
2019-05-02T16:32:23.899Z,15.65
2019-05-02T16:35:17.262Z,11.95
2019-05-02T16:37:46.758Z,12.98
2019-05-02T16:40:34.849Z,12.10
2019-05-02T16:46:35.974Z,13.03
2019-05-02T16:49:24.457Z,14.65
2019-05-02T16:52:38.118Z,14.78
2019-05-02T16:55:05.213Z,15.95
2019-05-02T16:57:35.176Z,19.30
2019-05-02T17:00:25.566Z,56.98
2019-05-02T17:03:17.428Z,46.58
2019-05-02T17:06:03.868Z,19.12
2019-05-02T17:09:11.935Z,20.92
2019-05-02T17:12:02.028Z,17.98
2019-05-02T17:15:13.704Z,17.05
2019-05-02T17:18:22.791Z,17.32
2019-05-02T17:21:12.660Z,18.42
2019-05-02T17:26:38.938Z,17.77
2019-05-02T17:29:27.694Z,16.50
2019-05-02T17:32:16.683Z,16.55
2019-05-02T17:35:25.744Z,16.37
2019-05-02T17:37:54.757Z,16.45
2019-05-02T17:40:43.050Z,17.35
2019-05-02T17:43:37.456Z,15.85
2019-05-02T17:46:26.098Z,20.88
2019-05-02T17:49:14.279Z,28.20
2019-05-02T17:52:26.720Z,47.35
2019-05-02T17:55:12.179Z,20.72
2019-05-02T17:58:04.601Z,21.80
2019-05-02T18:00:56.045Z,19.00
2019-05-02T18:03:24.075Z,23.38
2019-05-02T18:06:17.164Z,21.12
2019-05-02T18:09:02.560Z,30.70
2019-05-02T18:11:51.778Z,24.67
2019-05-02T18:14:42.156Z,24.92
2019-05-02T18:17:31.779Z,23.38
2019-05-02T18:20:21.961Z,26.12
2019-05-02T18:23:12.276Z,23.40
2019-05-02T18:25:52.735Z,24.23
2019-05-02T18:28:49.355Z,24.20
2019-05-02T18:31:39.616Z,19.60
2019-05-02T18:37:58.033Z,22.27
2019-05-02T18:40:36.289Z,57.43
2019-05-02T18:43:24.747Z,20.77
2019-05-02T18:46:13.083Z,24.63
2019-05-02T18:52:02.429Z,19.40
2019-05-02T18:54:51.752Z,22.87
2019-05-02T18:57:42.337Z,26.73
2019-05-02T19:00:36.169Z,22.98
2019-05-02T19:03:23.102Z,19.45
2019-05-02T19:06:11.751Z,20.52
2019-05-02T19:09:22.834Z,18.77
2019-05-02T19:15:07.171Z,20.10
2019-05-02T19:17:55.885Z,17.12
2019-05-02T19:21:03.502Z,16.67
2019-05-02T19:23:59.404Z,16.80
2019-05-02T19:26:41.661Z,19.60
2019-05-02T19:29:32.078Z,21.95
2019-05-02T19:32:12.306Z,19.92
2019-05-02T19:35:05.421Z,21.33
2019-05-02T19:37:52.480Z,17.67
2019-05-02T19:41:05.490Z,20.88
2019-05-02T19:43:53.413Z,19.17
2019-05-02T19:46:42.717Z,19.35
2019-05-02T19:53:37.958Z,23.55
2019-05-02T20:00:05.269Z,22.25
2019-05-02T20:02:25.991Z,20.68
2019-05-02T20:05:16.517Z,14.85
2019-05-02T20:08:04.600Z,19.65
2019-05-02T20:11:05.343Z,18.80
2019-05-02T20:17:19.952Z,13.28
2019-05-02T20:23:15.597Z,11.48
2019-05-02T20:29:04.357Z,9.60
2019-05-02T20:31:51.596Z,9.10
2019-05-02T20:34:36.828Z,9.83
2019-05-02T20:37:19.523Z,12.15
2019-05-02T20:40:02.965Z,10.65
2019-05-02T20:42:45.231Z,9.00
2019-05-02T20:45:25.761Z,8.55
2019-05-02T20:48:06.932Z,7.60
2019-05-02T20:50:55.135Z,10.58
2019-05-02T20:53:43.547Z,8.85
2019-05-02T20:56:52.009Z,10.68
2019-05-02T20:59:41.742Z,8.78
2019-05-02T21:02:31.875Z,19.40
2019-05-02T21:18:34.107Z,6.78
2019-05-02T21:21:26.399Z,8.03
2019-05-02T21:27:26.510Z,6.75
2019-05-02T21:30:18.061Z,5.22
2019-05-02T21:32:57.048Z,7.75
2019-05-02T21:35:55.600Z,5.75
2019-05-02T21:39:14.860Z,3.52
2019-05-02T21:44:42.219Z,8.70
2019-05-02T21:47:31.966Z,10.40
2019-05-02T21:53:28.023Z,12.93
2019-05-02T21:59:18.285Z,9.18
2019-05-02T22:08:17.548Z,7.87
2019-05-02T22:11:05.599Z,6.42
2019-05-02T22:13:53.709Z,7.47
2019-05-02T22:16:42.124Z,4.47
2019-05-02T22:19:32.331Z,5.37
2019-05-02T22:22:22.854Z,9.00
2019-05-02T22:25:11.613Z,7.75
2019-05-02T22:27:53.874Z,6.20
2019-05-02T22:30:33.967Z,8.80
2019-05-02T22:33:14.797Z,7.70
2019-05-02T22:35:53.691Z,5.83
2019-05-02T22:39:02.072Z,6.45
2019-05-02T22:41:52.476Z,13.45
2019-05-02T22:47:34.242Z,5.97
2019-05-02T22:50:02.925Z,5.40
2019-05-02T22:52:52.240Z,9.73
2019-05-02T22:55:42.453Z,3.85
2019-05-02T22:58:30.883Z,10.48
2019-05-02T23:01:21.625Z,5.10
2019-05-02T23:04:10.000Z,6.33
2019-05-02T23:06:58.055Z,7.75
2019-05-02T23:09:46.357Z,6.10
2019-05-02T23:12:34.400Z,9.53
2019-05-02T23:18:15.950Z,10.45
2019-05-02T23:21:03.958Z,8.75
2019-05-02T23:23:52.383Z,9.95
2019-05-02T23:27:00.891Z,9.35
2019-05-02T23:29:48.929Z,10.90
2019-05-02T23:32:37.004Z,12.33
2019-05-02T23:35:25.008Z,14.00
2019-05-02T23:38:04.068Z,12.98
2019-05-02T23:40:52.625Z,11.43
2019-05-02T23:43:41.983Z,18.67
2019-05-02T23:46:29.959Z,9.43
2019-05-02T23:49:18.016Z,11.12
2019-05-02T23:52:06.020Z,10.03
2019-05-02T23:54:54.004Z,7.33
2019-05-02T23:57:42.230Z,8.65
